sensor_id;sensor_type;location;lat;lon;timestamp;P1;durP1;ratioP1;P2;durP2;ratioP2
40515;SDS011;26216;53.724;9.898;2023-06-14T00:02:08;3.45;;;2.10;;
40515;SDS011;26216;53.724;9.898;2023-06-14T00:04:34;4.85;;;2.42;;
40515;SDS011;26216;53.724;9.898;2023-06-14T00:07:00;3.33;;;1.95;;
40515;SDS011;26216;53.724;9.898;2023-06-14T00:09:26;2.83;;;1.90;;
40515;SDS011;26216;53.724;9.898;2023-06-14T00:11:52;3.55;;;1.70;;
40515;SDS011;26216;53.724;9.898;2023-06-14T00:14:18;3.35;;;1.90;;
40515;SDS011;26216;53.724;9.898;2023-06-14T00:16:43;3.40;;;1.95;;
40515;SDS011;26216;53.724;9.898;2023-06-14T00:19:09;2.53;;;1.52;;
40515;SDS011;26216;53.724;9.898;2023-06-14T00:21:36;4.03;;;1.83;;
40515;SDS011;26216;53.724;9.898;2023-06-14T00:24:03;3.72;;;1.77;;
40515;SDS011;26216;53.724;9.898;2023-06-14T00:26:29;3.25;;;1.83;;
40515;SDS011;26216;53.724;9.898;2023-06-14T00:28:55;5.25;;;2.30;;
40515;SDS011;26216;53.724;9.898;2023-06-14T00:31:22;3.95;;;2.10;;
40515;SDS011;26216;53.724;9.898;2023-06-14T00:33:48;4.43;;;1.92;;
40515;SDS011;26216;53.724;9.898;2023-06-14T00:36:13;4.20;;;2.00;;
40515;SDS011;26216;53.724;9.898;2023-06-14T00:38:39;2.78;;;1.88;;
40515;SDS011;26216;53.724;9.898;2023-06-14T00:41:05;4.05;;;1.70;;
40515;SDS011;26216;53.724;9.898;2023-06-14T00:43:31;3.63;;;2.10;;
40515;SDS011;26216;53.724;9.898;2023-06-14T00:45:59;4.78;;;1.92;;
40515;SDS011;26216;53.724;9.898;2023-06-14T00:48:25;3.95;;;1.67;;
40515;SDS011;26216;53.724;9.898;2023-06-14T00:50:52;5.22;;;2.40;;
40515;SDS011;26216;53.724;9.898;2023-06-14T00:53:18;4.05;;;2.13;;
40515;SDS011;26216;53.724;9.898;2023-06-14T00:55:45;3.78;;;1.92;;
40515;SDS011;26216;53.724;9.898;2023-06-14T00:58:12;3.63;;;1.80;;
40515;SDS011;26216;53.724;9.898;2023-06-14T01:00:39;4.75;;;2.08;;
40515;SDS011;26216;53.724;9.898;2023-06-14T01:03:05;3.08;;;1.73;;
40515;SDS011;26216;53.724;9.898;2023-06-14T01:05:31;3.53;;;1.92;;
40515;SDS011;26216;53.724;9.898;2023-06-14T01:08:01;4.38;;;1.92;;
40515;SDS011;26216;53.724;9.898;2023-06-14T01:13:11;3.90;;;1.98;;
40515;SDS011;26216;53.724;9.898;2023-06-14T01:15:57;3.00;;;1.92;;
40515;SDS011;26216;53.724;9.898;2023-06-14T01:18:23;3.17;;;1.90;;
40515;SDS011;26216;53.724;9.898;2023-06-14T01:20:51;2.95;;;1.70;;
40515;SDS011;26216;53.724;9.898;2023-06-14T01:23:20;2.47;;;1.63;;
40515;SDS011;26216;53.724;9.898;2023-06-14T01:25:48;3.65;;;2.17;;
40515;SDS011;26216;53.724;9.898;2023-06-14T01:28:18;3.08;;;1.80;;
40515;SDS011;26216;53.724;9.898;2023-06-14T01:30:46;2.17;;;1.63;;
40515;SDS011;26216;53.724;9.898;2023-06-14T01:33:19;3.47;;;1.60;;
40515;SDS011;26216;53.724;9.898;2023-06-14T01:35:51;3.38;;;1.75;;
40515;SDS011;26216;53.724;9.898;2023-06-14T01:38:19;5.75;;;2.30;;
40515;SDS011;26216;53.724;9.898;2023-06-14T01:40:47;2.30;;;1.73;;
40515;SDS011;26216;53.724;9.898;2023-06-14T01:43:14;3.45;;;2.00;;
40515;SDS011;26216;53.724;9.898;2023-06-14T01:45:41;5.15;;;1.85;;
40515;SDS011;26216;53.724;9.898;2023-06-14T01:48:08;2.60;;;1.70;;
40515;SDS011;26216;53.724;9.898;2023-06-14T01:50:34;3.17;;;1.88;;
40515;SDS011;26216;53.724;9.898;2023-06-14T01:53:00;4.35;;;2.00;;
40515;SDS011;26216;53.724;9.898;2023-06-14T01:55:26;2.65;;;1.77;;
40515;SDS011;26216;53.724;9.898;2023-06-14T01:57:52;2.78;;;1.80;;
40515;SDS011;26216;53.724;9.898;2023-06-14T02:00:19;4.03;;;2.10;;
40515;SDS011;26216;53.724;9.898;2023-06-14T02:02:46;3.60;;;2.00;;
40515;SDS011;26216;53.724;9.898;2023-06-14T02:05:12;3.20;;;1.88;;
40515;SDS011;26216;53.724;9.898;2023-06-14T02:07:38;3.20;;;1.95;;
40515;SDS011;26216;53.724;9.898;2023-06-14T02:10:04;4.30;;;2.10;;
40515;SDS011;26216;53.724;9.898;2023-06-14T02:12:30;3.88;;;2.45;;
40515;SDS011;26216;53.724;9.898;2023-06-14T02:14:56;2.85;;;1.83;;
40515;SDS011;26216;53.724;9.898;2023-06-14T02:17:23;5.60;;;2.20;;
40515;SDS011;26216;53.724;9.898;2023-06-14T02:19:48;3.38;;;1.98;;
40515;SDS011;26216;53.724;9.898;2023-06-14T02:22:15;2.95;;;1.73;;
40515;SDS011;26216;53.724;9.898;2023-06-14T02:24:42;3.08;;;1.77;;
40515;SDS011;26216;53.724;9.898;2023-06-14T02:27:08;2.30;;;1.55;;
40515;SDS011;26216;53.724;9.898;2023-06-14T02:29:35;3.03;;;1.70;;
40515;SDS011;26216;53.724;9.898;2023-06-14T02:32:01;4.22;;;1.83;;
40515;SDS011;26216;53.724;9.898;2023-06-14T02:34:28;3.85;;;1.92;;
40515;SDS011;26216;53.724;9.898;2023-06-14T02:36:53;3.75;;;1.90;;
40515;SDS011;26216;53.724;9.898;2023-06-14T02:39:20;3.80;;;2.00;;
40515;SDS011;26216;53.724;9.898;2023-06-14T02:41:48;2.42;;;1.92;;
40515;SDS011;26216;53.724;9.898;2023-06-14T02:44:16;3.83;;;2.00;;
40515;SDS011;26216;53.724;9.898;2023-06-14T02:46:43;4.47;;;1.98;;
40515;SDS011;26216;53.724;9.898;2023-06-14T02:49:09;4.25;;;1.55;;
40515;SDS011;26216;53.724;9.898;2023-06-14T02:51:36;3.55;;;1.88;;
40515;SDS011;26216;53.724;9.898;2023-06-14T02:54:01;3.92;;;2.22;;
40515;SDS011;26216;53.724;9.898;2023-06-14T02:56:28;2.72;;;1.73;;
40515;SDS011;26216;53.724;9.898;2023-06-14T02:58:54;4.10;;;2.05;;
40515;SDS011;26216;53.724;9.898;2023-06-14T03:01:20;3.75;;;2.20;;
40515;SDS011;26216;53.724;9.898;2023-06-14T03:03:46;3.08;;;1.95;;
40515;SDS011;26216;53.724;9.898;2023-06-14T03:06:12;2.90;;;2.05;;
40515;SDS011;26216;53.724;9.898;2023-06-14T03:08:41;3.97;;;1.70;;
40515;SDS011;26216;53.724;9.898;2023-06-14T03:11:07;3.30;;;2.20;;
40515;SDS011;26216;53.724;9.898;2023-06-14T03:13:34;3.50;;;2.30;;
40515;SDS011;26216;53.724;9.898;2023-06-14T03:16:00;3.70;;;1.92;;
40515;SDS011;26216;53.724;9.898;2023-06-14T03:18:28;4.07;;;2.22;;
40515;SDS011;26216;53.724;9.898;2023-06-14T03:20:55;4.32;;;2.10;;
40515;SDS011;26216;53.724;9.898;2023-06-14T03:23:23;4.32;;;2.90;;
40515;SDS011;26216;53.724;9.898;2023-06-14T03:25:50;3.30;;;2.22;;
40515;SDS011;26216;53.724;9.898;2023-06-14T03:28:17;5.10;;;2.45;;
40515;SDS011;26216;53.724;9.898;2023-06-14T03:30:42;4.22;;;2.08;;
40515;SDS011;26216;53.724;9.898;2023-06-14T03:33:08;3.70;;;2.30;;
40515;SDS011;26216;53.724;9.898;2023-06-14T03:35:34;6.13;;;3.08;;
40515;SDS011;26216;53.724;9.898;2023-06-14T03:38:00;4.03;;;2.55;;
40515;SDS011;26216;53.724;9.898;2023-06-14T03:40:27;4.95;;;2.75;;
40515;SDS011;26216;53.724;9.898;2023-06-14T03:42:53;4.13;;;2.25;;
40515;SDS011;26216;53.724;9.898;2023-06-14T03:45:20;4.78;;;2.50;;
40515;SDS011;26216;53.724;9.898;2023-06-14T03:47:46;4.30;;;2.08;;
40515;SDS011;26216;53.724;9.898;2023-06-14T03:50:11;4.25;;;2.60;;
40515;SDS011;26216;53.724;9.898;2023-06-14T03:52:37;3.80;;;2.30;;
40515;SDS011;26216;53.724;9.898;2023-06-14T03:55:03;3.10;;;2.20;;
40515;SDS011;26216;53.724;9.898;2023-06-14T03:57:30;5.25;;;2.47;;
40515;SDS011;26216;53.724;9.898;2023-06-14T03:59:56;3.55;;;2.22;;
40515;SDS011;26216;53.724;9.898;2023-06-14T04:02:21;4.15;;;1.85;;
40515;SDS011;26216;53.724;9.898;2023-06-14T04:04:48;6.20;;;2.55;;
40515;SDS011;26216;53.724;9.898;2023-06-14T04:07:14;3.78;;;2.03;;
40515;SDS011;26216;53.724;9.898;2023-06-14T04:09:44;4.88;;;2.70;;
40515;SDS011;26216;53.724;9.898;2023-06-14T04:12:10;3.25;;;2.17;;
40515;SDS011;26216;53.724;9.898;2023-06-14T04:14:39;4.95;;;2.40;;
40515;SDS011;26216;53.724;9.898;2023-06-14T04:17:05;4.28;;;2.60;;
40515;SDS011;26216;53.724;9.898;2023-06-14T04:19:32;4.53;;;2.95;;
40515;SDS011;26216;53.724;9.898;2023-06-14T04:21:58;4.75;;;2.60;;
40515;SDS011;26216;53.724;9.898;2023-06-14T04:24:27;3.95;;;2.80;;
40515;SDS011;26216;53.724;9.898;2023-06-14T04:26:58;5.15;;;2.65;;
40515;SDS011;26216;53.724;9.898;2023-06-14T04:29:24;5.05;;;3.30;;
40515;SDS011;26216;53.724;9.898;2023-06-14T04:31:53;5.63;;;2.58;;
40515;SDS011;26216;53.724;9.898;2023-06-14T04:34:19;4.22;;;3.00;;
40515;SDS011;26216;53.724;9.898;2023-06-14T04:36:46;5.47;;;2.72;;
40515;SDS011;26216;53.724;9.898;2023-06-14T04:41:44;4.07;;;2.60;;
40515;SDS011;26216;53.724;9.898;2023-06-14T04:44:10;6.60;;;3.15;;
40515;SDS011;26216;53.724;9.898;2023-06-14T04:46:38;3.92;;;2.80;;
40515;SDS011;26216;53.724;9.898;2023-06-14T04:49:17;4.38;;;3.10;;
40515;SDS011;26216;53.724;9.898;2023-06-14T04:51:43;4.13;;;3.25;;
40515;SDS011;26216;53.724;9.898;2023-06-14T04:54:11;5.20;;;2.78;;
40515;SDS011;26216;53.724;9.898;2023-06-14T04:56:40;4.43;;;3.03;;
40515;SDS011;26216;53.724;9.898;2023-06-14T04:59:10;4.60;;;3.70;;
40515;SDS011;26216;53.724;9.898;2023-06-14T05:01:36;6.47;;;3.15;;
40515;SDS011;26216;53.724;9.898;2023-06-14T05:04:02;3.08;;;2.05;;
40515;SDS011;26216;53.724;9.898;2023-06-14T05:06:29;3.53;;;2.88;;
40515;SDS011;26216;53.724;9.898;2023-06-14T05:08:56;6.75;;;3.28;;
40515;SDS011;26216;53.724;9.898;2023-06-14T05:11:22;3.63;;;2.38;;
40515;SDS011;26216;53.724;9.898;2023-06-14T05:13:52;3.47;;;2.38;;
40515;SDS011;26216;53.724;9.898;2023-06-14T05:16:17;4.55;;;2.72;;
40515;SDS011;26216;53.724;9.898;2023-06-14T05:18:44;4.03;;;2.58;;
40515;SDS011;26216;53.724;9.898;2023-06-14T05:21:12;3.70;;;2.60;;
40515;SDS011;26216;53.724;9.898;2023-06-14T05:23:41;4.10;;;2.45;;
40515;SDS011;26216;53.724;9.898;2023-06-14T05:26:07;3.80;;;2.75;;
40515;SDS011;26216;53.724;9.898;2023-06-14T05:28:32;5.43;;;3.00;;
40515;SDS011;26216;53.724;9.898;2023-06-14T05:30:58;6.55;;;3.08;;
40515;SDS011;26216;53.724;9.898;2023-06-14T05:33:24;3.58;;;2.40;;
40515;SDS011;26216;53.724;9.898;2023-06-14T05:35:50;3.72;;;2.10;;
40515;SDS011;26216;53.724;9.898;2023-06-14T05:38:15;5.05;;;2.60;;
40515;SDS011;26216;53.724;9.898;2023-06-14T05:40:41;4.38;;;2.25;;
40515;SDS011;26216;53.724;9.898;2023-06-14T05:43:07;3.85;;;2.40;;
40515;SDS011;26216;53.724;9.898;2023-06-14T05:45:33;4.45;;;2.45;;
40515;SDS011;26216;53.724;9.898;2023-06-14T05:47:58;4.15;;;2.50;;
40515;SDS011;26216;53.724;9.898;2023-06-14T05:50:24;4.75;;;2.50;;
40515;SDS011;26216;53.724;9.898;2023-06-14T05:52:50;2.97;;;2.15;;
40515;SDS011;26216;53.724;9.898;2023-06-14T05:55:16;3.55;;;2.35;;
40515;SDS011;26216;53.724;9.898;2023-06-14T05:57:42;4.32;;;2.22;;
40515;SDS011;26216;53.724;9.898;2023-06-14T06:00:08;3.33;;;2.03;;
40515;SDS011;26216;53.724;9.898;2023-06-14T06:02:36;4.28;;;2.00;;
40515;SDS011;26216;53.724;9.898;2023-06-14T06:05:02;3.80;;;2.45;;
40515;SDS011;26216;53.724;9.898;2023-06-14T06:07:28;4.85;;;2.00;;
40515;SDS011;26216;53.724;9.898;2023-06-14T06:09:54;4.10;;;2.13;;
40515;SDS011;26216;53.724;9.898;2023-06-14T06:12:19;2.78;;;1.70;;
40515;SDS011;26216;53.724;9.898;2023-06-14T06:14:45;4.03;;;2.40;;
40515;SDS011;26216;53.724;9.898;2023-06-14T06:17:11;4.13;;;2.28;;
40515;SDS011;26216;53.724;9.898;2023-06-14T06:19:37;4.38;;;2.28;;
40515;SDS011;26216;53.724;9.898;2023-06-14T06:22:02;2.83;;;1.83;;
40515;SDS011;26216;53.724;9.898;2023-06-14T06:24:31;5.35;;;2.03;;
40515;SDS011;26216;53.724;9.898;2023-06-14T06:26:57;3.22;;;2.03;;
40515;SDS011;26216;53.724;9.898;2023-06-14T06:29:23;3.75;;;2.17;;
40515;SDS011;26216;53.724;9.898;2023-06-14T06:31:49;3.80;;;1.80;;
40515;SDS011;26216;53.724;9.898;2023-06-14T06:34:15;3.10;;;2.08;;
40515;SDS011;26216;53.724;9.898;2023-06-14T06:36:40;3.47;;;1.83;;
40515;SDS011;26216;53.724;9.898;2023-06-14T06:39:07;2.92;;;1.85;;
40515;SDS011;26216;53.724;9.898;2023-06-14T06:41:35;2.92;;;2.00;;
40515;SDS011;26216;53.724;9.898;2023-06-14T06:44:05;4.03;;;2.08;;
40515;SDS011;26216;53.724;9.898;2023-06-14T06:46:31;2.30;;;1.65;;
40515;SDS011;26216;53.724;9.898;2023-06-14T06:48:58;3.53;;;2.05;;
40515;SDS011;26216;53.724;9.898;2023-06-14T06:51:25;4.05;;;2.08;;
40515;SDS011;26216;53.724;9.898;2023-06-14T06:53:54;2.83;;;2.08;;
40515;SDS011;26216;53.724;9.898;2023-06-14T06:56:20;4.50;;;1.60;;
40515;SDS011;26216;53.724;9.898;2023-06-14T06:58:51;5.38;;;2.33;;
40515;SDS011;26216;53.724;9.898;2023-06-14T07:01:17;3.75;;;1.95;;
40515;SDS011;26216;53.724;9.898;2023-06-14T07:03:44;2.92;;;2.03;;
40515;SDS011;26216;53.724;9.898;2023-06-14T07:06:11;4.90;;;2.05;;
40515;SDS011;26216;53.724;9.898;2023-06-14T07:08:37;2.40;;;1.80;;
40515;SDS011;26216;53.724;9.898;2023-06-14T07:11:06;2.72;;;1.77;;
40515;SDS011;26216;53.724;9.898;2023-06-14T07:13:32;3.08;;;2.00;;
40515;SDS011;26216;53.724;9.898;2023-06-14T07:15:58;2.75;;;1.98;;
40515;SDS011;26216;53.724;9.898;2023-06-14T07:18:26;2.03;;;1.73;;
40515;SDS011;26216;53.724;9.898;2023-06-14T07:20:52;2.67;;;1.80;;
40515;SDS011;26216;53.724;9.898;2023-06-14T07:23:19;3.97;;;1.90;;
40515;SDS011;26216;53.724;9.898;2023-06-14T07:25:45;3.83;;;2.03;;
40515;SDS011;26216;53.724;9.898;2023-06-14T07:28:11;2.58;;;1.77;;
40515;SDS011;26216;53.724;9.898;2023-06-14T07:30:37;2.67;;;1.67;;
40515;SDS011;26216;53.724;9.898;2023-06-14T07:33:03;2.75;;;1.85;;
40515;SDS011;26216;53.724;9.898;2023-06-14T07:35:29;1.98;;;1.52;;
40515;SDS011;26216;53.724;9.898;2023-06-14T07:37:55;4.43;;;2.08;;
40515;SDS011;26216;53.724;9.898;2023-06-14T07:40:21;4.05;;;1.60;;
40515;SDS011;26216;53.724;9.898;2023-06-14T07:42:46;2.65;;;1.63;;
40515;SDS011;26216;53.724;9.898;2023-06-14T07:45:15;2.20;;;1.60;;
40515;SDS011;26216;53.724;9.898;2023-06-14T07:47:42;4.28;;;2.08;;
40515;SDS011;26216;53.724;9.898;2023-06-14T07:50:08;2.30;;;1.60;;
40515;SDS011;26216;53.724;9.898;2023-06-14T07:52:34;3.35;;;1.70;;
40515;SDS011;26216;53.724;9.898;2023-06-14T07:55:00;3.33;;;1.60;;
40515;SDS011;26216;53.724;9.898;2023-06-14T07:57:26;2.50;;;1.73;;
40515;SDS011;26216;53.724;9.898;2023-06-14T07:59:51;3.17;;;2.08;;
40515;SDS011;26216;53.724;9.898;2023-06-14T08:02:17;2.60;;;1.80;;
40515;SDS011;26216;53.724;9.898;2023-06-14T08:04:43;2.42;;;1.40;;
40515;SDS011;26216;53.724;9.898;2023-06-14T08:07:09;2.70;;;1.73;;
40515;SDS011;26216;53.724;9.898;2023-06-14T08:09:35;2.40;;;1.60;;
40515;SDS011;26216;53.724;9.898;2023-06-14T08:12:05;3.28;;;2.03;;
40515;SDS011;26216;53.724;9.898;2023-06-14T08:14:35;2.75;;;1.90;;
40515;SDS011;26216;53.724;9.898;2023-06-14T08:17:01;2.22;;;1.30;;
40515;SDS011;26216;53.724;9.898;2023-06-14T08:19:26;2.28;;;1.48;;
40515;SDS011;26216;53.724;9.898;2023-06-14T08:21:53;4.30;;;1.80;;
40515;SDS011;26216;53.724;9.898;2023-06-14T08:24:23;2.00;;;1.42;;
40515;SDS011;26216;53.724;9.898;2023-06-14T08:26:49;2.45;;;1.73;;
40515;SDS011;26216;53.724;9.898;2023-06-14T08:29:15;2.50;;;1.80;;
40515;SDS011;26216;53.724;9.898;2023-06-14T08:31:41;2.22;;;1.70;;
40515;SDS011;26216;53.724;9.898;2023-06-14T08:34:07;2.75;;;1.65;;
40515;SDS011;26216;53.724;9.898;2023-06-14T08:36:34;2.53;;;1.80;;
40515;SDS011;26216;53.724;9.898;2023-06-14T08:39:01;3.08;;;2.00;;
40515;SDS011;26216;53.724;9.898;2023-06-14T08:41:27;3.22;;;1.75;;
40515;SDS011;26216;53.724;9.898;2023-06-14T08:43:54;4.93;;;2.10;;
40515;SDS011;26216;53.724;9.898;2023-06-14T08:46:21;3.03;;;2.00;;
40515;SDS011;26216;53.724;9.898;2023-06-14T08:48:52;3.80;;;2.38;;
40515;SDS011;26216;53.724;9.898;2023-06-14T08:51:24;3.40;;;1.75;;
40515;SDS011;26216;53.724;9.898;2023-06-14T08:53:53;2.35;;;1.70;;
40515;SDS011;26216;53.724;9.898;2023-06-14T08:56:27;3.83;;;1.80;;
40515;SDS011;26216;53.724;9.898;2023-06-14T08:58:54;2.50;;;1.83;;
40515;SDS011;26216;53.724;9.898;2023-06-14T09:01:21;2.90;;;2.13;;
40515;SDS011;26216;53.724;9.898;2023-06-14T09:03:48;3.45;;;1.98;;
40515;SDS011;26216;53.724;9.898;2023-06-14T09:06:15;2.50;;;1.70;;
40515;SDS011;26216;53.724;9.898;2023-06-14T09:08:44;3.65;;;2.08;;
40515;SDS011;26216;53.724;9.898;2023-06-14T09:11:11;3.65;;;1.90;;
40515;SDS011;26216;53.724;9.898;2023-06-14T09:13:38;4.20;;;2.05;;
40515;SDS011;26216;53.724;9.898;2023-06-14T09:16:05;2.50;;;1.85;;
40515;SDS011;26216;53.724;9.898;2023-06-14T09:18:38;4.10;;;1.85;;
40515;SDS011;26216;53.724;9.898;2023-06-14T09:21:06;2.58;;;1.70;;
40515;SDS011;26216;53.724;9.898;2023-06-14T09:23:33;4.18;;;2.10;;
40515;SDS011;26216;53.724;9.898;2023-06-14T09:26:06;5.35;;;2.35;;
40515;SDS011;26216;53.724;9.898;2023-06-14T09:28:42;8.50;;;2.30;;
40515;SDS011;26216;53.724;9.898;2023-06-14T09:31:19;3.33;;;2.03;;
40515;SDS011;26216;53.724;9.898;2023-06-14T09:33:46;3.33;;;2.28;;
40515;SDS011;26216;53.724;9.898;2023-06-14T09:36:21;3.20;;;2.00;;
40515;SDS011;26216;53.724;9.898;2023-06-14T09:38:52;4.13;;;2.20;;
40515;SDS011;26216;53.724;9.898;2023-06-14T09:41:37;2.30;;;1.60;;
40515;SDS011;26216;53.724;9.898;2023-06-14T09:44:05;4.05;;;2.25;;
40515;SDS011;26216;53.724;9.898;2023-06-14T09:46:33;3.22;;;2.08;;
40515;SDS011;26216;53.724;9.898;2023-06-14T09:48:59;2.85;;;1.80;;
40515;SDS011;26216;53.724;9.898;2023-06-14T09:51:26;3.08;;;1.80;;
40515;SDS011;26216;53.724;9.898;2023-06-14T09:53:55;2.88;;;2.17;;
40515;SDS011;26216;53.724;9.898;2023-06-14T09:56:29;4.18;;;1.95;;
40515;SDS011;26216;53.724;9.898;2023-06-14T09:59:06;3.22;;;1.90;;
40515;SDS011;26216;53.724;9.898;2023-06-14T10:01:35;2.97;;;1.80;;
40515;SDS011;26216;53.724;9.898;2023-06-14T10:04:09;2.63;;;1.83;;
40515;SDS011;26216;53.724;9.898;2023-06-14T10:06:36;4.72;;;2.05;;
40515;SDS011;26216;53.724;9.898;2023-06-14T10:09:04;2.53;;;1.80;;
40515;SDS011;26216;53.724;9.898;2023-06-14T10:11:33;2.58;;;1.75;;
40515;SDS011;26216;53.724;9.898;2023-06-14T10:14:00;4.82;;;2.03;;
40515;SDS011;26216;53.724;9.898;2023-06-14T10:16:31;3.60;;;1.98;;
40515;SDS011;26216;53.724;9.898;2023-06-14T10:22:01;3.38;;;1.85;;
40515;SDS011;26216;53.724;9.898;2023-06-14T10:24:30;6.03;;;2.10;;
40515;SDS011;26216;53.724;9.898;2023-06-14T10:26:59;3.08;;;2.10;;
40515;SDS011;26216;53.724;9.898;2023-06-14T10:29:26;3.22;;;1.90;;
40515;SDS011;26216;53.724;9.898;2023-06-14T10:31:57;3.08;;;1.88;;
40515;SDS011;26216;53.724;9.898;2023-06-14T10:39:30;5.18;;;2.50;;
40515;SDS011;26216;53.724;9.898;2023-06-14T10:41:57;2.63;;;1.80;;
40515;SDS011;26216;53.724;9.898;2023-06-14T10:46:55;2.85;;;1.80;;
40515;SDS011;26216;53.724;9.898;2023-06-14T10:49:39;3.75;;;1.75;;
40515;SDS011;26216;53.724;9.898;2023-06-14T10:52:09;3.55;;;2.10;;
40515;SDS011;26216;53.724;9.898;2023-06-14T10:57:36;4.38;;;2.20;;
40515;SDS011;26216;53.724;9.898;2023-06-14T11:00:25;2.95;;;2.10;;
40515;SDS011;26216;53.724;9.898;2023-06-14T11:05:55;3.33;;;1.92;;
40515;SDS011;26216;53.724;9.898;2023-06-14T11:08:40;3.55;;;1.88;;
40515;SDS011;26216;53.724;9.898;2023-06-14T11:11:08;3.50;;;2.10;;
40515;SDS011;26216;53.724;9.898;2023-06-14T11:13:41;2.63;;;1.80;;
40515;SDS011;26216;53.724;9.898;2023-06-14T11:16:19;2.88;;;1.77;;
40515;SDS011;26216;53.724;9.898;2023-06-14T11:18:45;5.03;;;2.20;;
40515;SDS011;26216;53.724;9.898;2023-06-14T11:21:11;3.47;;;2.20;;
40515;SDS011;26216;53.724;9.898;2023-06-14T11:23:40;3.00;;;2.05;;
40515;SDS011;26216;53.724;9.898;2023-06-14T11:26:06;2.92;;;1.60;;
40515;SDS011;26216;53.724;9.898;2023-06-14T11:28:38;3.20;;;1.70;;
40515;SDS011;26216;53.724;9.898;2023-06-14T11:31:05;4.32;;;1.88;;
40515;SDS011;26216;53.724;9.898;2023-06-14T11:33:31;4.45;;;2.28;;
40515;SDS011;26216;53.724;9.898;2023-06-14T11:35:57;2.85;;;1.70;;
40515;SDS011;26216;53.724;9.898;2023-06-14T11:38:24;4.20;;;1.90;;
40515;SDS011;26216;53.724;9.898;2023-06-14T11:40:51;3.88;;;2.30;;
40515;SDS011;26216;53.724;9.898;2023-06-14T11:43:17;2.53;;;1.83;;
40515;SDS011;26216;53.724;9.898;2023-06-14T11:45:43;4.65;;;2.40;;
40515;SDS011;26216;53.724;9.898;2023-06-14T11:48:14;2.00;;;1.65;;
40515;SDS011;26216;53.724;9.898;2023-06-14T11:50:40;3.28;;;1.80;;
40515;SDS011;26216;53.724;9.898;2023-06-14T11:53:06;2.45;;;1.88;;
40515;SDS011;26216;53.724;9.898;2023-06-14T11:55:38;3.00;;;1.90;;
40515;SDS011;26216;53.724;9.898;2023-06-14T11:58:06;2.55;;;1.67;;
40515;SDS011;26216;53.724;9.898;2023-06-14T12:00:32;2.85;;;1.98;;
40515;SDS011;26216;53.724;9.898;2023-06-14T12:03:00;5.50;;;2.47;;
40515;SDS011;26216;53.724;9.898;2023-06-14T12:05:26;2.90;;;1.95;;
40515;SDS011;26216;53.724;9.898;2023-06-14T12:08:03;2.58;;;1.42;;
40515;SDS011;26216;53.724;9.898;2023-06-14T12:10:39;2.97;;;1.95;;
40515;SDS011;26216;53.724;9.898;2023-06-14T12:13:06;3.25;;;1.75;;
40515;SDS011;26216;53.724;9.898;2023-06-14T12:15:32;2.50;;;1.70;;
40515;SDS011;26216;53.724;9.898;2023-06-14T12:17:58;2.28;;;1.70;;
40515;SDS011;26216;53.724;9.898;2023-06-14T12:20:28;3.53;;;1.80;;
40515;SDS011;26216;53.724;9.898;2023-06-14T12:22:55;2.47;;;1.70;;
40515;SDS011;26216;53.724;9.898;2023-06-14T12:27:58;2.67;;;1.65;;
40515;SDS011;26216;53.724;9.898;2023-06-14T12:30:28;2.97;;;1.63;;
40515;SDS011;26216;53.724;9.898;2023-06-14T12:32:54;2.65;;;1.88;;
40515;SDS011;26216;53.724;9.898;2023-06-14T12:35:20;2.88;;;1.67;;
40515;SDS011;26216;53.724;9.898;2023-06-14T12:37:46;3.00;;;2.00;;
40515;SDS011;26216;53.724;9.898;2023-06-14T12:40:12;2.75;;;1.58;;
40515;SDS011;26216;53.724;9.898;2023-06-14T12:42:39;2.30;;;1.80;;
40515;SDS011;26216;53.724;9.898;2023-06-14T12:45:06;3.55;;;1.67;;
40515;SDS011;26216;53.724;9.898;2023-06-14T12:47:35;2.05;;;1.63;;
40515;SDS011;26216;53.724;9.898;2023-06-14T12:50:01;3.20;;;2.03;;
40515;SDS011;26216;53.724;9.898;2023-06-14T12:52:27;2.25;;;1.60;;
40515;SDS011;26216;53.724;9.898;2023-06-14T12:54:53;2.17;;;1.73;;
40515;SDS011;26216;53.724;9.898;2023-06-14T12:57:19;3.00;;;1.92;;
40515;SDS011;26216;53.724;9.898;2023-06-14T12:59:45;2.13;;;1.45;;
40515;SDS011;26216;53.724;9.898;2023-06-14T13:02:12;2.40;;;1.75;;
40515;SDS011;26216;53.724;9.898;2023-06-14T13:04:38;2.10;;;1.60;;
40515;SDS011;26216;53.724;9.898;2023-06-14T13:07:04;2.08;;;1.60;;
40515;SDS011;26216;53.724;9.898;2023-06-14T13:09:30;2.53;;;1.50;;
40515;SDS011;26216;53.724;9.898;2023-06-14T13:11:56;4.25;;;2.00;;
40515;SDS011;26216;53.724;9.898;2023-06-14T13:14:22;3.13;;;1.63;;
40515;SDS011;26216;53.724;9.898;2023-06-14T13:16:48;2.80;;;1.67;;
40515;SDS011;26216;53.724;9.898;2023-06-14T13:19:14;2.50;;;1.67;;
40515;SDS011;26216;53.724;9.898;2023-06-14T13:21:40;2.63;;;1.60;;
40515;SDS011;26216;53.724;9.898;2023-06-14T13:24:06;2.67;;;1.90;;
40515;SDS011;26216;53.724;9.898;2023-06-14T13:26:32;3.22;;;1.58;;
40515;SDS011;26216;53.724;9.898;2023-06-14T13:28:59;2.80;;;2.22;;
40515;SDS011;26216;53.724;9.898;2023-06-14T13:31:25;2.90;;;1.60;;
40515;SDS011;26216;53.724;9.898;2023-06-14T13:33:51;2.88;;;1.50;;
40515;SDS011;26216;53.724;9.898;2023-06-14T13:36:16;3.03;;;1.52;;
40515;SDS011;26216;53.724;9.898;2023-06-14T13:38:43;3.35;;;2.03;;
40515;SDS011;26216;53.724;9.898;2023-06-14T13:41:08;3.40;;;2.40;;
40515;SDS011;26216;53.724;9.898;2023-06-14T13:43:34;3.28;;;1.88;;
40515;SDS011;26216;53.724;9.898;2023-06-14T13:46:00;2.60;;;1.40;;
40515;SDS011;26216;53.724;9.898;2023-06-14T13:48:26;2.47;;;1.65;;
40515;SDS011;26216;53.724;9.898;2023-06-14T13:50:52;2.33;;;1.50;;
40515;SDS011;26216;53.724;9.898;2023-06-14T13:53:18;1.73;;;1.33;;
40515;SDS011;26216;53.724;9.898;2023-06-14T13:55:44;1.67;;;1.20;;
40515;SDS011;26216;53.724;9.898;2023-06-14T13:58:10;2.67;;;1.40;;
40515;SDS011;26216;53.724;9.898;2023-06-14T14:00:36;3.33;;;1.70;;
40515;SDS011;26216;53.724;9.898;2023-06-14T14:03:05;1.98;;;1.42;;
40515;SDS011;26216;53.724;9.898;2023-06-14T14:05:31;2.00;;;1.42;;
40515;SDS011;26216;53.724;9.898;2023-06-14T14:07:59;1.88;;;1.52;;
40515;SDS011;26216;53.724;9.898;2023-06-14T14:10:25;1.52;;;1.25;;
40515;SDS011;26216;53.724;9.898;2023-06-14T14:12:51;2.90;;;1.80;;
40515;SDS011;26216;53.724;9.898;2023-06-14T14:15:18;2.33;;;1.45;;
40515;SDS011;26216;53.724;9.898;2023-06-14T14:17:44;2.63;;;1.42;;
40515;SDS011;26216;53.724;9.898;2023-06-14T14:20:10;2.47;;;1.50;;
40515;SDS011;26216;53.724;9.898;2023-06-14T14:22:41;3.25;;;1.70;;
40515;SDS011;26216;53.724;9.898;2023-06-14T14:25:08;1.67;;;1.48;;
40515;SDS011;26216;53.724;9.898;2023-06-14T14:27:34;2.38;;;1.50;;
40515;SDS011;26216;53.724;9.898;2023-06-14T14:30:00;2.10;;;1.38;;
40515;SDS011;26216;53.724;9.898;2023-06-14T14:32:27;2.63;;;1.75;;
40515;SDS011;26216;53.724;9.898;2023-06-14T14:34:52;3.35;;;2.00;;
40515;SDS011;26216;53.724;9.898;2023-06-14T14:37:18;2.15;;;1.60;;
40515;SDS011;26216;53.724;9.898;2023-06-14T14:39:44;2.92;;;1.77;;
40515;SDS011;26216;53.724;9.898;2023-06-14T14:42:11;3.20;;;1.75;;
40515;SDS011;26216;53.724;9.898;2023-06-14T14:44:38;2.72;;;1.90;;
40515;SDS011;26216;53.724;9.898;2023-06-14T14:47:04;4.63;;;1.67;;
40515;SDS011;26216;53.724;9.898;2023-06-14T14:49:31;2.80;;;1.73;;
40515;SDS011;26216;53.724;9.898;2023-06-14T14:51:57;2.83;;;2.00;;
40515;SDS011;26216;53.724;9.898;2023-06-14T14:54:23;2.45;;;1.70;;
40515;SDS011;26216;53.724;9.898;2023-06-14T14:56:50;3.55;;;1.77;;
40515;SDS011;26216;53.724;9.898;2023-06-14T14:59:16;3.10;;;1.60;;
40515;SDS011;26216;53.724;9.898;2023-06-14T15:01:43;2.30;;;1.80;;
40515;SDS011;26216;53.724;9.898;2023-06-14T15:04:10;3.60;;;2.10;;
40515;SDS011;26216;53.724;9.898;2023-06-14T15:06:37;4.47;;;2.00;;
40515;SDS011;26216;53.724;9.898;2023-06-14T15:09:05;4.97;;;2.10;;
40515;SDS011;26216;53.724;9.898;2023-06-14T15:11:31;2.17;;;1.70;;
40515;SDS011;26216;53.724;9.898;2023-06-14T15:14:15;3.10;;;1.88;;